sensor_id;sensor_type;location;lat;lon;timestamp;temperature;humidity
3592;DHT22;1810;48.720;9.094;2024-02-28T06:42:37;7.00;99.90
3592;DHT22;1810;48.720;9.094;2024-02-28T06:45:06;6.50;99.90
3592;DHT22;1810;48.720;9.094;2024-02-28T06:47:36;6.20;99.90
3592;DHT22;1810;48.720;9.094;2024-02-28T06:50:06;6.30;99.90
3592;DHT22;1810;48.720;9.094;2024-02-28T06:52:35;6.30;99.90
3592;DHT22;1810;48.720;9.094;2024-02-28T06:55:04;6.40;99.90
3592;DHT22;1810;48.720;9.094;2024-02-28T06:57:37;6.50;99.90
3592;DHT22;1810;48.720;9.094;2024-02-28T07:00:07;6.40;99.90
3592;DHT22;1810;48.720;9.094;2024-02-28T07:02:36;6.40;99.90
3592;DHT22;1810;48.720;9.094;2024-02-28T07:05:06;6.50;99.90
3592;DHT22;1810;48.720;9.094;2024-02-28T07:07:35;6.50;99.90
3592;DHT22;1810;48.720;9.094;2024-02-28T07:10:03;6.60;99.90
3592;DHT22;1810;48.720;9.094;2024-02-28T07:12:32;6.70;99.90
3592;DHT22;1810;48.720;9.094;2024-02-28T07:15:01;6.60;99.90
3592;DHT22;1810;48.720;9.094;2024-02-28T07:17:29;6.70;99.90
3592;DHT22;1810;48.720;9.094;2024-02-28T07:19:57;6.70;99.90
3592;DHT22;1810;48.720;9.094;2024-02-28T07:22:27;6.70;99.90
3592;DHT22;1810;48.720;9.094;2024-02-28T07:24:55;6.80;99.90
3592;DHT22;1810;48.720;9.094;2024-02-28T07:27:48;6.70;99.90
3592;DHT22;1810;48.720;9.094;2024-02-28T21:32:43;6.90;99.90
3592;DHT22;1810;48.720;9.094;2024-02-28T21:57:39;5.90;99.90
3592;DHT22;1810;48.720;9.094;2024-02-28T22:00:08;5.20;99.90
3592;DHT22;1810;48.720;9.094;2024-02-28T22:02:37;5.10;99.90
3592;DHT22;1810;48.720;9.094;2024-02-28T22:05:07;5.10;99.90
3592;DHT22;1810;48.720;9.094;2024-02-28T22:07:35;5.00;99.90
3592;DHT22;1810;48.720;9.094;2024-02-28T22:10:04;5.00;99.90
3592;DHT22;1810;48.720;9.094;2024-02-28T22:12:37;5.00;99.90
3592;DHT22;1810;48.720;9.094;2024-02-28T22:15:21;5.00;99.90
3592;DHT22;1810;48.720;9.094;2024-02-28T22:17:50;5.00;99.90
3592;DHT22;1810;48.720;9.094;2024-02-28T22:20:20;4.80;99.90
3592;DHT22;1810;48.720;9.094;2024-02-28T22:22:54;4.80;99.90
3592;DHT22;1810;48.720;9.094;2024-02-28T22:25:39;4.70;99.90
3592;DHT22;1810;48.720;9.094;2024-02-28T22:28:12;4.70;99.90
3592;DHT22;1810;48.720;9.094;2024-02-28T22:30:41;4.70;99.90
3592;DHT22;1810;48.720;9.094;2024-02-28T22:33:09;4.70;99.90
3592;DHT22;1810;48.720;9.094;2024-02-28T22:35:37;4.70;99.90
3592;DHT22;1810;48.720;9.094;2024-02-28T22:38:06;4.60;99.90
3592;DHT22;1810;48.720;9.094;2024-02-28T22:40:34;4.60;99.90
3592;DHT22;1810;48.720;9.094;2024-02-28T22:43:03;4.60;99.90
3592;DHT22;1810;48.720;9.094;2024-02-28T22:45:33;4.60;99.90
3592;DHT22;1810;48.720;9.094;2024-02-28T22:48:01;4.60;99.90
3592;DHT22;1810;48.720;9.094;2024-02-28T22:50:30;4.50;99.90
3592;DHT22;1810;48.720;9.094;2024-02-28T22:52:59;4.50;99.90
3592;DHT22;1810;48.720;9.094;2024-02-28T22:55:36;4.60;99.90
3592;DHT22;1810;48.720;9.094;2024-02-28T22:58:18;4.70;99.90
3592;DHT22;1810;48.720;9.094;2024-02-28T23:01:10;4.70;99.90
3592;DHT22;1810;48.720;9.094;2024-02-28T23:03:42;4.60;99.90
3592;DHT22;1810;48.720;9.094;2024-02-28T23:06:10;4.70;99.90
3592;DHT22;1810;48.720;9.094;2024-02-28T23:08:39;4.70;99.90
3592;DHT22;1810;48.720;9.094;2024-02-28T23:11:07;4.70;99.90
3592;DHT22;1810;48.720;9.094;2024-02-28T23:13:35;4.70;99.90
3592;DHT22;1810;48.720;9.094;2024-02-28T23:16:05;4.70;99.90
3592;DHT22;1810;48.720;9.094;2024-02-28T23:18:36;4.70;99.90
3592;DHT22;1810;48.720;9.094;2024-02-28T23:21:04;4.70;99.90
3592;DHT22;1810;48.720;9.094;2024-02-28T23:23:32;4.70;99.90
3592;DHT22;1810;48.720;9.094;2024-02-28T23:26:00;4.80;99.90
3592;DHT22;1810;48.720;9.094;2024-02-28T23:28:29;4.80;99.90
3592;DHT22;1810;48.720;9.094;2024-02-28T23:30:58;4.80;99.90
3592;DHT22;1810;48.720;9.094;2024-02-28T23:33:26;4.80;99.90
3592;DHT22;1810;48.720;9.094;2024-02-28T23:35:56;4.70;99.90
3592;DHT22;1810;48.720;9.094;2024-02-28T23:38:24;4.70;99.90
3592;DHT22;1810;48.720;9.094;2024-02-28T23:40:53;4.60;99.90
3592;DHT22;1810;48.720;9.094;2024-02-28T23:43:21;4.60;99.90
3592;DHT22;1810;48.720;9.094;2024-02-28T23:45:49;4.60;99.90
3592;DHT22;1810;48.720;9.094;2024-02-28T23:48:18;4.60;99.90
3592;DHT22;1810;48.720;9.094;2024-02-28T23:50:48;4.50;99.90
3592;DHT22;1810;48.720;9.094;2024-02-28T23:53:18;4.50;99.90
3592;DHT22;1810;48.720;9.094;2024-02-28T23:55:47;4.60;99.90
3592;DHT22;1810;48.720;9.094;2024-02-28T23:58:15;4.50;99.90
